Time;durP1;ratioP1;P1;durP2;ratioP2;P2;SDS_P1;SDS_P2;PMS_P1;PMS_P2;Temp;Humidity;BMP_temperature;BMP_pressure;BME280_temperature;BME280_humidity;BME280_pressure;Samples;Min_cycle;Max_cycle;Signal;HPM_P1;HPM_P2
2021/03/04 00:00:31;;;;;;;14.43;11.73;;;;;;;5.90;79.96;101111.59;5071006;28;20642;-75
2021/03/04 00:02:56;;;;;;;11.00;9.90;;;;;;;5.67;80.73;101114.72;5071093;28;20476;-75
2021/03/04 00:05:21;;;;;;;10.13;8.80;;;;;;;5.42;81.96;101119.97;5070327;28;20177;-74
2021/03/04 00:07:47;;;;;;;13.10;10.83;;;;;;;5.22;83.02;101126.06;5070653;28;20253;-75
2021/03/04 00:10:14;;;;;;;13.57;10.33;;;;;;;5.07;83.46;101119.44;5072306;28;20503;-75
2021/03/04 00:12:41;;;;;;;10.27;8.67;;;;;;;4.91;83.89;101119.53;5072928;28;20653;-75
2021/03/04 00:15:08;;;;;;;8.27;7.33;;;;;;;4.75;84.92;101118.56;5070992;28;20201;-75
2021/03/04 00:17:34;;;;;;;11.60;7.47;;;;;;;4.72;85.36;101113.69;5070238;28;20182;-74
2021/03/04 00:20:00;;;;;;;11.03;8.53;;;;;;;4.77;85.97;101111.84;5070742;28;20194;-75
2021/03/04 00:22:26;;;;;;;11.00;9.97;;;;;;;4.83;85.52;101109.19;5070797;28;20185;-75
2021/03/04 00:24:51;;;;;;;11.50;7.47;;;;;;;4.84;85.74;101108.94;5069342;28;20180;-75
2021/03/04 00:27:17;;;;;;;11.80;7.87;;;;;;;4.80;85.86;101107.81;5070546;28;20170;-74
2021/03/04 00:29:42;;;;;;;17.10;9.07;;;;;;;4.70;86.12;101102.28;5070802;28;20618;-74
2021/03/04 00:32:07;;;;;;;11.43;9.07;;;;;;;4.64;86.60;101104.16;5070599;28;20182;-74
2021/03/04 00:34:33;;;;;;;12.53;8.30;;;;;;;4.52;86.79;101097.25;5070705;28;20182;-75
2021/03/04 00:36:59;;;;;;;11.67;10.30;;;;;;;4.48;87.40;101099.63;5070251;28;20202;-74
2021/03/04 00:39:24;;;;;;;10.10;8.87;;;;;;;4.45;87.64;101094.72;5070636;28;20178;-74
2021/03/04 00:41:49;;;;;;;12.43;9.23;;;;;;;4.41;87.68;101105.25;5070562;28;20239;-75
2021/03/04 00:44:15;;;;;;;9.80;8.80;;;;;;;4.40;87.85;101090.09;5070488;28;20166;-74
2021/03/04 00:46:40;;;;;;;8.37;6.27;;;;;;;4.36;87.96;101096.28;5070205;28;20171;-75
2021/03/04 00:49:06;;;;;;;10.40;8.07;;;;;;;4.33;88.23;101094.06;5070377;28;20417;-75
2021/03/04 00:51:31;;;;;;;14.47;9.77;;;;;;;4.25;87.74;101100.75;5070765;28;20179;-75
2021/03/04 00:53:56;;;;;;;12.30;11.20;;;;;;;4.16;88.25;101097.66;5070505;28;20171;-75
2021/03/04 00:56:22;;;;;;;10.90;8.30;;;;;;;4.08;88.73;101091.88;5069923;28;20220;-75
2021/03/04 00:58:47;;;;;;;13.07;8.83;;;;;;;3.99;89.40;101099.63;5070379;28;20179;-75
2021/03/04 01:01:14;;;;;;;14.40;9.67;;;;;;;3.91;90.22;101100.06;5070457;28;20633;-75
2021/03/04 01:03:39;;;;;;;11.50;10.20;;;;;;;3.89;90.49;101091.38;5070229;28;20182;-75
2021/03/04 01:06:05;;;;;;;14.23;8.83;;;;;;;3.83;90.83;101089.69;5070203;28;20179;-75
2021/03/04 01:08:31;;;;;;;13.73;7.67;;;;;;;3.75;91.50;101098.22;5070198;28;20175;-75
2021/03/04 01:10:57;;;;;;;10.07;7.83;;;;;;;3.70;92.19;101093.56;5070251;28;20678;-75
2021/03/04 01:13:23;;;;;;;20.83;10.20;;;;;;;3.67;92.73;101087.84;5070502;28;20641;-75
2021/03/04 01:15:48;;;;;;;14.87;11.20;;;;;;;3.59;94.10;101098.00;5070036;28;20203;-74
2021/03/04 01:18:14;;;;;;;7.60;6.90;;;;;;;3.57;95.15;101092.03;5070954;28;20185;-74
2021/03/04 01:20:40;;;;;;;5.73;5.23;;;;;;;3.57;95.72;101088.50;5073925;28;20171;-74
2021/03/04 01:23:06;;;;;;;13.77;10.37;;;;;;;3.54;96.29;101084.44;5073989;28;20175;-75
2021/03/04 01:25:32;;;;;;;16.00;11.57;;;;;;;3.58;96.77;101077.47;5073671;28;20183;-75
2021/03/04 01:27:57;;;;;;;26.77;13.90;;;;;;;3.63;97.22;101081.31;5073496;28;20243;-75
2021/03/04 01:30:27;;;;;;;10.47;9.47;;;;;;;3.66;97.59;101070.00;5073745;28;20178;-75
2021/03/04 01:32:52;;;;;;;14.17;12.87;;;;;;;3.68;97.80;101073.28;5073623;28;20524;-75
2021/03/04 01:35:18;;;;;;;16.93;8.20;;;;;;;3.71;98.11;101062.78;5073543;28;20281;-75
2021/03/04 01:37:43;;;;;;;13.27;10.03;;;;;;;3.75;98.48;101063.06;5073697;28;20185;-75
2021/03/04 01:40:13;;;;;;;9.33;8.27;;;;;;;3.75;98.59;101060.38;5073459;28;20230;-75
2021/03/04 01:42:39;;;;;;;11.03;10.03;;;;;;;3.81;98.68;101052.09;5073401;28;20278;-74
2021/03/04 01:45:06;;;;;;;16.40;10.80;;;;;;;3.78;98.95;101051.78;5073568;28;20269;-75
2021/03/04 01:47:32;;;;;;;11.43;10.53;;;;;;;3.83;98.94;101054.53;5072987;28;20178;-75
2021/03/04 01:49:57;;;;;;;12.17;6.80;;;;;;;3.77;98.98;101055.56;5073321;28;20586;-75
2021/03/04 01:52:23;;;;;;;16.20;12.77;;;;;;;3.77;99.26;101050.16;5073386;28;20567;-75
2021/03/04 01:54:49;;;;;;;17.97;8.40;;;;;;;3.69;99.60;101043.28;5073860;28;20206;-75
2021/03/04 01:57:16;;;;;;;19.07;10.90;;;;;;;3.70;99.57;101042.22;5073212;28;20248;-76
2021/03/04 01:59:42;;;;;;;16.90;10.73;;;;;;;3.76;99.69;101035.00;5073056;28;20589;-75
2021/03/04 02:02:07;;;;;;;11.00;9.90;;;;;;;3.71;99.74;101035.75;5073095;28;20170;-75
2021/03/04 02:04:33;;;;;;;13.00;9.73;;;;;;;3.74;99.93;101042.53;5073021;28;20545;-75
2021/03/04 02:07:05;;;;;;;19.00;10.73;;;;;;;3.78;99.90;101040.97;5072712;28;20228;-75
2021/03/04 02:09:32;;;;;;;13.37;10.00;;;;;;;3.80;99.83;101044.25;5072818;28;20158;-76
2021/03/04 02:12:16;;;;;;;12.57;11.23;;;;;;;3.83;100.00;101044.56;5072972;28;20183;-75
2021/03/04 02:14:52;;;;;;;6.43;5.00;;;;;;;3.78;99.92;101044.50;5073298;28;20204;-75
2021/03/04 02:17:20;;;;;;;13.83;8.07;;;;;;;3.77;99.72;101039.34;5072786;28;20669;-75
2021/03/04 02:20:00;;;;;;;13.53;12.13;;;;;;;3.78;99.71;101039.09;5072702;28;20181;-74
2021/03/04 02:22:45;;;;;;;10.67;9.77;;;;;;;3.80;99.82;101038.84;5072545;28;20232;-75
2021/03/04 02:25:18;;;;;;;15.97;11.50;;;;;;;3.85;99.78;101030.78;5072813;28;20482;-76
2021/03/04 02:27:43;;;;;;;11.70;8.50;;;;;;;3.84;99.63;101018.34;5072140;28;20206;-75
2021/03/04 02:30:15;;;;;;;2.60;2.50;;;;;;;3.73;99.38;101020.09;5071489;28;20217;-75
2021/03/04 02:32:48;;;;;;;6.43;5.87;;;;;;;3.69;99.08;101018.97;5072511;28;20684;-75
2021/03/04 02:35:29;;;;;;;8.13;7.13;;;;;;;3.65;99.13;101020.56;5072212;28;20179;-75
2021/03/04 02:37:58;;;;;;;16.00;10.43;;;;;;;3.59;98.86;101011.53;5072068;28;20240;-75
2021/03/04 02:40:27;;;;;;;9.20;8.30;;;;;;;3.54;99.10;101005.28;5072521;28;20626;-74
2021/03/04 02:42:53;;;;;;;6.97;6.13;;;;;;;3.53;99.00;101006.34;5072486;28;20182;-74
2021/03/04 02:45:22;;;;;;;13.63;11.70;;;;;;;3.49;99.52;101008.75;5072261;28;20675;-75
2021/03/04 02:47:48;;;;;;;41.80;13.20;;;;;;;3.54;99.53;101016.09;5071930;28;20228;-75
2021/03/04 02:50:14;;;;;;;17.57;10.33;;;;;;;3.51;99.41;101012.00;5072138;28;20175;-74
2021/03/04 02:52:40;;;;;;;21.53;13.00;;;;;;;3.49;99.62;101018.72;5072041;28;20202;-75
2021/03/04 02:55:07;;;;;;;11.90;8.27;;;;;;;3.50;99.47;101004.97;5072031;28;20175;-75
2021/03/04 02:57:35;;;;;;;4.60;4.13;;;;;;;3.49;99.44;101000.63;5071683;28;20263;-75
2021/03/04 03:00:01;;;;;;;9.23;8.03;;;;;;;3.50;99.24;101006.84;5072319;28;20197;-75
2021/03/04 03:02:28;;;;;;;10.43;9.60;;;;;;;3.47;99.00;101002.78;5070644;28;20502;-75
2021/03/04 03:04:55;;;;;;;13.60;9.80;;;;;;;3.46;98.68;101003.81;5071661;28;20175;-75
2021/03/04 03:07:21;;;;;;;18.57;9.17;;;;;;;3.48;98.44;101004.41;5071438;28;20558;-74
2021/03/04 03:09:47;;;;;;;8.77;8.13;;;;;;;3.48;97.99;100999.00;5071670;28;20177;-75
2021/03/04 03:12:15;;;;;;;16.77;7.63;;;;;;;3.47;97.54;100993.81;5070463;28;20541;-75
2021/03/04 03:14:42;;;;;;;17.80;10.13;;;;;;;3.47;97.33;100989.28;5071384;28;20231;-75
2021/03/04 03:17:07;;;;;;;8.57;7.77;;;;;;;3.50;97.16;100988.75;5070910;28;20255;-75
2021/03/04 03:19:34;;;;;;;8.13;5.23;;;;;;;3.53;96.96;100990.13;5071409;28;20202;-75
2021/03/04 03:22:00;;;;;;;11.50;10.40;;;;;;;3.51;96.71;100976.88;5070736;28;20182;-75
2021/03/04 03:24:25;;;;;;;8.70;7.90;;;;;;;3.51;96.81;100971.47;5071434;28;20171;-75
2021/03/04 03:26:50;;;;;;;6.47;5.93;;;;;;;3.50;96.69;100969.03;5071204;28;20227;-75
2021/03/04 03:29:16;;;;;;;8.40;6.53;;;;;;;3.49;96.29;100967.41;5071306;28;20177;-75
2021/03/04 03:31:42;;;;;;;11.40;6.93;;;;;;;3.43;96.40;100971.91;5071280;28;20197;-74
2021/03/04 03:34:09;;;;;;;18.40;8.57;;;;;;;3.41;96.13;100965.94;5070214;28;20198;-75
2021/03/04 03:36:35;;;;;;;19.40;11.00;;;;;;;3.43;96.53;100966.50;5070869;28;20210;-75
2021/03/04 03:39:04;;;;;;;7.97;7.07;;;;;;;3.44;96.26;100970.84;5071476;28;20265;-74
2021/03/04 03:41:31;;;;;;;17.57;11.63;;;;;;;3.41;96.31;100970.53;5071090;28;20223;-75
2021/03/04 03:43:57;;;;;;;8.50;7.90;;;;;;;3.41;96.16;100976.75;5071113;28;20159;-75
2021/03/04 03:46:23;;;;;;;7.70;6.00;;;;;;;3.38;95.92;100966.47;5070717;28;20178;-75
2021/03/04 03:48:50;;;;;;;8.13;7.07;;;;;;;3.31;96.13;100965.81;5071279;28;20231;-75
2021/03/04 03:51:16;;;;;;;9.27;6.63;;;;;;;3.26;95.90;100966.56;5071365;28;20228;-75
2021/03/04 03:53:42;;;;;;;17.93;8.27;;;;;;;3.21;96.20;100960.28;5071240;28;20685;-75
2021/03/04 03:56:08;;;;;;;10.03;6.67;;;;;;;3.22;96.35;100961.94;5070958;28;20649;-75
2021/03/04 03:58:38;;;;;;;15.70;9.57;;;;;;;3.24;96.34;100965.19;5070853;28;20294;-75
2021/03/04 04:01:04;;;;;;;19.37;10.07;;;;;;;3.23;96.30;100953.56;5071150;28;20382;-77
2021/03/04 04:03:30;;;;;;;9.67;7.20;;;;;;;3.17;96.46;100954.56;5069991;28;20316;-77
2021/03/04 04:05:56;;;;;;;17.47;9.73;;;;;;;3.15;96.34;100945.88;5070934;28;20421;-77
2021/03/04 04:08:24;;;;;;;5.50;5.10;;;;;;;3.12;96.49;100949.09;5070700;28;20177;-77
2021/03/04 04:10:50;;;;;;;10.93;10.07;;;;;;;3.11;96.91;100954.75;5071009;28;20190;-77
2021/03/04 04:13:16;;;;;;;21.63;12.67;;;;;;;3.13;97.04;100956.13;5070977;28;20213;-77
2021/03/04 04:15:42;;;;;;;13.13;11.20;;;;;;;3.13;97.03;100958.00;5071304;28;20284;-77
2021/03/04 04:18:07;;;;;;;8.20;7.37;;;;;;;3.13;96.85;100947.22;5070613;28;20194;-76
2021/03/04 04:20:33;;;;;;;8.63;8.07;;;;;;;3.07;97.04;100942.81;5070879;28;20181;-77
2021/03/04 04:22:59;;;;;;;15.33;9.20;;;;;;;3.08;97.05;100939.06;5070828;28;20276;-77
2021/03/04 04:25:25;;;;;;;7.10;6.43;;;;;;;3.08;96.99;100944.47;5070759;28;20171;-77
2021/03/04 04:27:54;;;;;;;9.07;8.37;;;;;;;3.09;96.92;100938.00;5070531;28;20170;-77
2021/03/04 04:30:21;;;;;;;17.17;11.40;;;;;;;3.05;96.93;100934.16;5070608;28;20174;-77
2021/03/04 04:32:47;;;;;;;10.93;7.27;;;;;;;3.02;96.62;100938.16;5070599;28;20175;-77
2021/03/04 04:35:13;;;;;;;11.73;10.37;;;;;;;3.01;96.45;100924.91;5070744;28;20428;-77
2021/03/04 04:37:40;;;;;;;10.43;8.20;;;;;;;2.95;96.43;100922.16;5070523;28;20720;-77
2021/03/04 04:40:06;;;;;;;12.13;10.03;;;;;;;3.06;96.55;100927.69;5070621;28;20278;-77
2021/03/04 04:42:32;;;;;;;16.90;10.67;;;;;;;3.07;96.48;100926.63;5070623;28;20192;-77
2021/03/04 04:44:57;;;;;;;19.30;9.43;;;;;;;3.08;96.38;100923.69;5071031;28;20250;-77
2021/03/04 04:47:22;;;;;;;19.93;11.37;;;;;;;3.15;96.40;100928.88;5070375;28;20182;-77
2021/03/04 04:49:48;;;;;;;21.33;10.80;;;;;;;3.22;96.08;100924.13;5070603;28;20197;-77
2021/03/04 04:52:14;;;;;;;18.13;11.20;;;;;;;3.23;95.86;100929.28;5071490;28;20686;-77
2021/03/04 04:54:39;;;;;;;10.43;6.83;;;;;;;3.34;95.49;100918.59;5073217;28;20175;-77
2021/03/04 04:57:05;;;;;;;31.90;11.80;;;;;;;3.28;95.04;100912.31;5074046;28;20637;-77
2021/03/04 04:59:30;;;;;;;20.40;8.93;;;;;;;3.20;94.70;100915.47;5074463;28;20185;-77
2021/03/04 05:01:55;;;;;;;15.20;9.00;;;;;;;3.10;94.96;100924.25;5074353;28;20178;-77
2021/03/04 05:04:20;;;;;;;7.73;3.67;;;;;;;3.00;94.96;100918.69;5074364;28;20166;-77
2021/03/04 05:06:46;;;;;;;8.07;7.33;;;;;;;2.90;95.04;100914.00;5074162;28;20178;-77
2021/03/04 05:09:11;;;;;;;9.03;8.13;;;;;;;2.87;95.25;100914.47;5074567;28;20783;-77
2021/03/04 05:11:37;;;;;;;6.43;5.83;;;;;;;2.82;95.42;100908.19;5074045;28;20193;-77
2021/03/04 05:14:02;;;;;;;4.83;4.43;;;;;;;2.84;95.49;100897.97;5074238;28;20185;-74
2021/03/04 05:16:28;;;;;;;16.17;10.10;;;;;;;2.79;95.55;100904.13;5074131;28;20387;-77
2021/03/04 05:18:53;;;;;;;7.93;6.97;;;;;;;2.76;95.61;100912.72;5074126;28;20219;-77
2021/03/04 05:21:18;;;;;;;15.00;6.60;;;;;;;2.70;95.94;100913.69;5074138;28;20167;-77
2021/03/04 05:23:44;;;;;;;13.93;10.90;;;;;;;2.70;96.15;100916.38;5074407;28;20532;-77
2021/03/04 05:26:09;;;;;;;12.93;7.93;;;;;;;2.71;96.22;100903.72;5073684;28;20194;-77
2021/03/04 05:28:34;;;;;;;26.10;10.53;;;;;;;2.73;96.20;100907.78;5072571;28;20223;-77
2021/03/04 05:30:59;;;;;;;11.77;7.70;;;;;;;2.73;96.38;100909.69;5073604;28;20193;-77
2021/03/04 05:33:25;;;;;;;27.23;10.57;;;;;;;2.70;96.39;100905.59;5073791;28;20265;-77
2021/03/04 05:35:50;;;;;;;8.07;7.27;;;;;;;2.68;96.34;100896.94;5072414;28;20198;-77
2021/03/04 05:38:15;;;;;;;9.30;7.00;;;;;;;2.70;96.42;100886.72;5073491;28;20210;-77
2021/03/04 05:40:41;;;;;;;11.60;7.07;;;;;;;2.70;96.45;100881.31;5073535;28;20661;-77
2021/03/04 05:43:06;;;;;;;20.97;11.47;;;;;;;2.67;96.63;100877.25;5073528;28;20209;-77
2021/03/04 05:45:33;;;;;;;11.13;8.23;;;;;;;2.66;96.77;100872.09;5073539;28;20171;-76
2021/03/04 05:48:01;;;;;;;21.20;9.57;;;;;;;2.67;96.82;100879.13;5073203;28;20209;-77
2021/03/04 05:50:28;;;;;;;10.83;9.77;;;;;;;2.67;97.11;100873.72;5073429;28;20274;-77
2021/03/04 05:53:09;;;;;;;8.17;7.40;;;;;;;2.66;96.88;100870.22;5073119;28;20213;-77
2021/03/04 05:55:36;;;;;;;15.17;9.90;;;;;;;2.59;97.27;100866.03;5073221;28;20175;-77
2021/03/04 05:58:01;;;;;;;21.47;9.20;;;;;;;2.62;97.39;100868.28;5071831;28;20262;-77
2021/03/04 06:00:27;;;;;;;7.30;6.33;;;;;;;2.65;97.76;100871.28;5073214;28;20253;-77
2021/03/04 06:02:53;;;;;;;19.93;9.87;;;;;;;2.66;97.61;100870.22;5073141;28;20181;-77
2021/03/04 06:05:18;;;;;;;15.77;7.67;;;;;;;2.68;97.61;100868.09;5073206;28;20244;-77
2021/03/04 06:07:45;;;;;;;19.63;9.43;;;;;;;2.67;97.86;100871.03;5073011;28;20666;-77
2021/03/04 06:10:12;;;;;;;9.73;5.87;;;;;;;2.63;97.80;100873.41;5073111;28;20178;-77
2021/03/04 06:12:37;;;;;;;23.83;7.37;;;;;;;2.62;98.33;100871.78;5073285;28;20174;-77
2021/03/04 06:15:06;;;;;;;8.33;7.70;;;;;;;2.59;98.03;100869.56;5072939;28;20175;-77
2021/03/04 06:17:31;;;;;;;8.57;8.03;;;;;;;2.58;98.08;100869.81;5071042;28;20214;-77
2021/03/04 06:19:59;;;;;;;23.43;9.30;;;;;;;2.56;98.02;100870.06;5073213;28;20183;-76
2021/03/04 06:22:45;;;;;;;12.67;10.50;;;;;;;2.57;97.69;100868.19;5073211;28;20220;-77
2021/03/04 06:25:11;;;;;;;9.30;8.40;;;;;;;2.61;97.90;100874.72;5075489;28;20258;-77
2021/03/04 06:27:47;;;;;;;10.07;6.77;;;;;;;2.61;98.01;100872.03;5074472;28;20198;-77
2021/03/04 06:30:15;;;;;;;26.10;12.50;;;;;;;2.53;98.01;100873.25;5073272;28;20283;-77
2021/03/04 06:32:52;;;;;;;5.97;5.43;;;;;;;2.56;97.63;100888.94;5072489;28;20182;-77
2021/03/04 06:35:18;;;;;;;10.90;7.67;;;;;;;2.55;97.56;100883.78;5072688;28;20202;-77
2021/03/04 06:37:45;;;;;;;19.97;10.97;;;;;;;2.57;97.48;100879.78;5072130;28;20484;-77
2021/03/04 06:40:30;;;;;;;15.60;6.87;;;;;;;2.59;97.33;100884.94;5071172;28;20580;-77
2021/03/04 06:42:55;;;;;;;17.67;8.97;;;;;;;2.65;97.11;100881.25;5072150;28;20315;-77
2021/03/04 06:45:24;;;;;;;10.60;9.63;;;;;;;2.56;97.20;100880.03;5072274;28;20578;-77
2021/03/04 06:47:50;;;;;;;9.20;7.20;;;;;;;2.56;97.11;100875.47;5071897;28;20170;-77
2021/03/04 06:50:25;;;;;;;7.93;4.47;;;;;;;2.57;96.91;100878.97;5072088;28;20167;-77
2021/03/04 06:52:51;;;;;;;16.47;10.77;;;;;;;2.59;97.21;100874.13;5072013;28;20170;-77
2021/03/04 06:55:17;;;;;;;7.53;4.67;;;;;;;2.58;97.14;100867.94;5072420;28;20904;-77
2021/03/04 06:58:00;;;;;;;8.23;5.27;;;;;;;2.44;97.27;100880.13;5071842;28;20292;-77
2021/03/04 07:00:26;;;;;;;18.57;8.33;;;;;;;2.44;97.47;100874.72;5070737;28;20175;-77
2021/03/04 07:02:53;;;;;;;7.23;4.17;;;;;;;2.45;98.07;100865.56;5071830;28;20423;-77
2021/03/04 07:05:21;;;;;;;6.70;6.20;;;;;;;2.48;98.11;100857.00;5071768;28;20178;-77
2021/03/04 07:07:53;;;;;;;10.13;7.87;;;;;;;2.46;98.04;100861.00;5071346;28;20634;-77
2021/03/04 07:10:23;;;;;;;18.30;10.17;;;;;;;2.33;98.46;100857.59;5071564;28;20201;-77
2021/03/04 07:12:49;;;;;;;8.23;6.77;;;;;;;2.41;98.96;100859.06;5071714;28;20824;-77
2021/03/04 07:15:17;;;;;;;13.10;7.10;;;;;;;2.47;98.99;100852.69;5071149;28;20690;-78
2021/03/04 07:17:47;;;;;;;11.33;8.87;;;;;;;2.50;99.03;100854.06;5071158;28;20678;-77
2021/03/04 07:20:17;;;;;;;13.13;5.83;;;;;;;2.55;99.05;100849.56;5071491;28;20605;-77
2021/03/04 07:22:48;;;;;;;11.17;7.17;;;;;;;2.50;99.08;100856.75;5071355;28;20626;-77
2021/03/04 07:25:14;;;;;;;22.77;9.07;;;;;;;2.48;99.56;100838.13;5071480;28;20190;-77
2021/03/04 07:27:41;;;;;;;16.60;10.97;;;;;;;2.43;99.12;100848.03;5070867;28;20182;-75
2021/03/04 07:30:08;;;;;;;22.93;10.67;;;;;;;2.58;99.44;100849.06;5071165;28;20178;-77
2021/03/04 07:32:34;;;;;;;13.10;5.73;;;;;;;2.62;99.34;100849.38;5071184;28;20171;-77
2021/03/04 07:35:00;;;;;;;19.07;9.53;;;;;;;2.63;99.25;100857.22;5071224;28;20162;-77
2021/03/04 07:37:25;;;;;;;12.50;5.37;;;;;;;2.67;98.70;100868.34;5071025;28;20685;-77
2021/03/04 07:39:58;;;;;;;12.70;8.07;;;;;;;2.57;98.57;100871.69;5070991;28;20252;-77
2021/03/04 07:42:24;;;;;;;21.03;10.40;;;;;;;2.55;98.52;100879.22;5071079;28;20185;-77
2021/03/04 07:44:50;;;;;;;17.47;7.63;;;;;;;2.49;98.70;100872.13;5070972;28;20171;-77
2021/03/04 07:47:27;;;;;;;7.53;6.77;;;;;;;2.35;98.71;100882.44;5070584;28;20228;-76
2021/03/04 07:49:53;;;;;;;14.23;5.70;;;;;;;2.28;99.22;100876.38;5070999;28;20747;-76
2021/03/04 07:52:21;;;;;;;9.30;7.67;;;;;;;2.23;99.40;100881.69;5071035;28;20178;-75
2021/03/04 07:54:52;;;;;;;9.20;7.27;;;;;;;2.23;99.87;100886.28;5070936;28;20416;-76
2021/03/04 07:57:19;;;;;;;4.30;4.03;;;;;;;2.24;100.00;100891.41;5070502;28;20467;-77
2021/03/04 08:00:04;;;;;;;10.10;7.27;;;;;;;2.21;100.00;100891.09;5070895;28;20515;-78
2021/03/04 08:02:34;;;;;;;11.37;5.00;;;;;;;2.28;100.00;100876.38;5070789;28;20409;-77
2021/03/04 08:05:10;;;;;;;5.00;4.07;;;;;;;2.19;100.00;100875.19;5070853;28;20408;-77
2021/03/04 08:07:36;;;;;;;3.17;3.07;;;;;;;2.26;100.00;100875.00;5070314;28;20427;-77
2021/03/04 08:10:13;;;;;;;10.37;4.60;;;;;;;2.15;100.00;100865.94;5070824;28;20175;-76
2021/03/04 08:12:58;;;;;;;10.80;7.47;;;;;;;2.15;100.00;100875.88;5070569;28;20171;-77
2021/03/04 08:15:40;;;;;;;8.90;3.73;;;;;;;2.11;100.00;100870.19;5070651;28;20973;-77
2021/03/04 08:18:19;;;;;;;7.77;5.83;;;;;;;2.13;100.00;100878.00;5070420;28;20420;-77
2021/03/04 08:20:45;;;;;;;8.00;4.90;;;;;;;2.05;100.00;100863.09;5070808;28;20413;-77
2021/03/04 08:23:11;;;;;;;6.03;5.73;;;;;;;2.00;100.00;100862.97;5070659;28;20417;-77
2021/03/04 08:25:37;;;;;;;6.37;5.20;;;;;;;1.98;100.00;100860.53;5069481;28;20439;-77
2021/03/04 08:28:04;;;;;;;6.47;6.07;;;;;;;2.06;100.00;100856.63;5072471;28;20586;-77
2021/03/04 08:30:32;;;;;;;18.20;8.47;;;;;;;2.09;100.00;100862.34;5074658;28;20420;-76
2021/03/04 08:33:01;;;;;;;20.67;5.30;;;;;;;2.15;100.00;100857.84;5074837;28;20916;-77
2021/03/04 08:35:26;;;;;;;6.93;6.30;;;;;;;2.18;100.00;100851.97;5074653;28;21137;-76
2021/03/04 08:38:04;;;;;;;7.17;6.00;;;;;;;2.29;100.00;100852.94;5073971;28;20494;-76
2021/03/04 08:40:51;;;;;;;5.07;4.73;;;;;;;2.24;100.00;100842.91;5074658;28;20209;-77
2021/03/04 08:43:20;;;;;;;11.30;7.83;;;;;;;2.30;100.00;100846.47;5074368;28;20531;-73
2021/03/04 08:45:51;;;;;;;1.97;1.93;;;;;;;2.24;100.00;100842.91;5074434;28;20658;-85
2021/03/04 08:48:16;;;;;;;17.63;6.03;;;;;;;2.14;100.00;100836.53;5073800;28;20417;-76
2021/03/04 08:50:45;;;;;;;5.70;3.93;;;;;;;2.15;100.00;100833.59;5074437;28;20235;-77
2021/03/04 08:53:15;;;;;;;2.13;1.83;;;;;;;2.17;99.82;100830.63;5073953;28;20222;-76
2021/03/04 08:55:45;;;;;;;24.83;5.00;;;;;;;2.20;99.93;100830.97;5072891;28;20446;-77
2021/03/04 08:58:11;;;;;;;5.17;4.73;;;;;;;2.18;99.74;100835.00;5073651;28;20435;-76
2021/03/04 09:00:37;;;;;;;10.23;6.83;;;;;;;2.23;99.85;100825.09;5073914;28;20179;-74
2021/03/04 09:03:08;;;;;;;6.90;5.80;;;;;;;2.22;99.72;100826.16;5074132;28;20651;-77
2021/03/04 09:05:33;;;;;;;3.43;3.13;;;;;;;2.26;99.34;100826.47;5072768;28;20224;-77
2021/03/04 09:07:58;;;;;;;4.40;3.97;;;;;;;2.33;99.70;100817.16;5073849;28;20175;-78
2021/03/04 09:10:24;;;;;;;8.27;4.10;;;;;;;2.33;99.16;100821.75;5073970;28;20667;-76
2021/03/04 09:12:49;;;;;;;3.17;3.00;;;;;;;2.25;98.86;100816.75;5073822;28;20266;-76
2021/03/04 09:15:22;;;;;;;11.83;7.60;;;;;;;2.30;99.01;100814.13;5073809;28;20610;-76
2021/03/04 09:17:48;;;;;;;0.90;0.90;;;;;;;2.28;99.02;100821.66;5072333;28;20210;-76
2021/03/04 09:20:15;;;;;;;3.87;2.97;;;;;;;2.21;98.89;100826.41;5073213;28;20182;-76
2021/03/04 09:22:42;;;;;;;4.83;3.07;;;;;;;2.04;99.19;100829.13;5074035;28;20179;-77
2021/03/04 09:25:10;;;;;;;2.53;2.20;;;;;;;2.06;99.33;100827.81;5072408;28;20468;-77
2021/03/04 09:27:39;;;;;;;13.63;5.83;;;;;;;1.99;99.18;100818.25;5073475;28;20983;-77
2021/03/04 09:30:07;;;;;;;6.37;4.60;;;;;;;2.03;99.64;100825.59;5073617;28;20470;-77
2021/03/04 09:32:32;;;;;;;4.07;3.73;;;;;;;2.14;99.37;100807.69;5073874;28;21082;-78
2021/03/04 09:34:58;;;;;;;2.40;2.30;;;;;;;2.28;99.23;100817.06;5073527;28;20474;-77
2021/03/04 09:37:23;;;;;;;7.73;3.10;;;;;;;2.30;98.51;100809.56;5073444;28;20206;-75
2021/03/04 09:39:50;;;;;;;2.57;2.37;;;;;;;2.36;97.89;100822.06;5072739;28;20174;-77
2021/03/04 09:42:31;;;;;;;5.53;4.57;;;;;;;2.49;97.84;100820.91;5073104;28;20680;-77
2021/03/04 09:45:00;;;;;;;5.10;2.43;;;;;;;2.56;97.13;100828.78;5073528;28;20205;-77
2021/03/04 09:47:28;;;;;;;3.13;2.93;;;;;;;2.59;96.92;100825.59;5068017;28;20263;-77
2021/03/04 09:49:55;;;;;;;2.50;2.20;;;;;;;2.54;96.47;100841.72;5065420;28;20789;-77
2021/03/04 09:52:25;;;;;;;10.43;3.40;;;;;;;2.47;96.46;100833.00;5071992;28;20236;-77
2021/03/04 09:54:52;;;;;;;5.97;3.77;;;;;;;2.52;96.90;100833.88;5072062;28;20177;-77
2021/03/04 09:57:20;;;;;;;9.43;3.17;;;;;;;2.49;96.87;100836.25;5072887;28;20210;-77
2021/03/04 09:59:53;;;;;;;3.23;3.03;;;;;;;2.44;96.28;100831.59;5073453;28;20186;-77
2021/03/04 10:02:20;;;;;;;4.03;2.93;;;;;;;2.30;96.42;100833.81;5073287;28;20416;-77
2021/03/04 10:05:03;;;;;;;4.67;3.87;;;;;;;2.29;96.76;100842.97;5072942;28;20266;-77
2021/03/04 10:07:31;;;;;;;4.27;1.50;;;;;;;2.28;96.25;100840.53;5071383;28;20524;-77
2021/03/04 10:09:57;;;;;;;4.03;1.73;;;;;;;2.26;96.57;100846.16;5072768;28;20224;-77
2021/03/04 10:12:23;;;;;;;8.93;4.10;;;;;;;2.25;96.30;100841.03;5072602;28;20535;-77
2021/03/04 10:14:51;;;;;;;1.40;1.40;;;;;;;2.26;96.13;100842.66;5071302;28;20208;-77
2021/03/04 10:17:17;;;;;;;4.60;4.20;;;;;;;2.27;95.90;100841.59;5072233;28;20206;-77
2021/03/04 10:19:43;;;;;;;5.07;3.57;;;;;;;2.29;95.87;100839.44;5072270;28;20504;-77
2021/03/04 10:22:08;;;;;;;4.93;4.63;;;;;;;2.35;95.84;100843.88;5072429;28;20540;-77
2021/03/04 10:24:34;;;;;;;2.40;2.27;;;;;;;2.34;95.52;100848.44;5071143;28;20179;-76
2021/03/04 10:27:00;;;;;;;2.17;1.23;;;;;;;2.28;95.50;100843.22;5072037;28;20190;-77
2021/03/04 10:29:30;;;;;;;8.17;4.33;;;;;;;2.22;95.53;100847.72;5072383;28;20179;-77
2021/03/04 10:31:56;;;;;;;1.70;1.70;;;;;;;2.17;95.07;100844.13;5072228;28;20432;-77
2021/03/04 10:34:22;;;;;;;1.73;1.63;;;;;;;2.22;95.07;100841.53;5071714;28;20174;-76
2021/03/04 10:36:47;;;;;;;2.60;2.47;;;;;;;2.23;95.09;100846.66;5071836;28;20517;-77
2021/03/04 10:39:15;;;;;;;2.07;1.97;;;;;;;2.26;94.79;100839.94;5072007;28;20175;-77
2021/03/04 10:41:40;;;;;;;4.53;1.77;;;;;;;2.30;94.99;100833.00;5070558;28;20263;-77
2021/03/04 10:44:06;;;;;;;4.63;3.47;;;;;;;2.30;94.74;100833.81;5072030;28;20937;-77
2021/03/04 10:46:31;;;;;;;3.63;3.43;;;;;;;2.35;94.57;100830.41;5071397;28;20634;-77
2021/03/04 10:48:56;;;;;;;3.93;3.63;;;;;;;2.39;94.91;100834.22;5071527;28;20180;-77
2021/03/04 10:51:22;;;;;;;3.13;2.93;;;;;;;2.40;94.81;100833.16;5071060;28;20255;-77
2021/03/04 10:53:47;;;;;;;2.33;2.13;;;;;;;2.42;94.79;100838.28;5071254;28;20318;-74
2021/03/04 10:56:12;;;;;;;7.73;3.83;;;;;;;2.39;95.01;100835.03;5071109;28;20217;-78
2021/03/04 10:58:37;;;;;;;3.57;2.50;;;;;;;2.35;95.29;100833.91;5071399;28;20257;-78
2021/03/04 11:01:03;;;;;;;5.23;2.57;;;;;;;2.37;95.30;100845.25;5071600;28;20579;-77
2021/03/04 11:03:28;;;;;;;4.03;2.70;;;;;;;2.47;95.41;100841.09;5071405;28;20167;-77
2021/03/04 11:05:53;;;;;;;1.93;1.90;;;;;;;2.44;94.80;100850.47;5069862;28;20183;-78
2021/03/04 11:08:19;;;;;;;3.03;2.77;;;;;;;2.45;95.22;100844.00;5069728;28;20544;-77
2021/03/04 11:10:46;;;;;;;1.73;1.63;;;;;;;2.37;95.34;100847.94;5068988;28;20697;-77
2021/03/04 11:13:14;;;;;;;2.63;2.03;;;;;;;2.34;95.93;100847.63;5071397;28;20163;-77
2021/03/04 11:15:40;;;;;;;3.77;2.73;;;;;;;2.39;96.05;100847.69;5070952;28;20190;-78
2021/03/04 11:18:05;;;;;;;2.03;1.93;;;;;;;2.43;95.90;100848.03;5069034;28;20456;-77
2021/03/04 11:20:31;;;;;;;4.40;0.87;;;;;;;2.39;95.44;100850.41;5069689;28;20220;-77
2021/03/04 11:22:56;;;;;;;5.13;1.27;;;;;;;2.40;95.33;100846.63;5069644;28;20177;-77
2021/03/04 11:25:21;;;;;;;2.40;2.30;;;;;;;2.39;94.96;100845.00;5069750;28;20654;-78
2021/03/04 11:27:47;;;;;;;5.10;2.47;;;;;;;2.35;94.36;100844.69;5069134;28;20541;-77